Time;durP1;ratioP1;P1;durP2;ratioP2;P2;SDS_P1;SDS_P2;PMS_P1;PMS_P2;Temp;Humidity;BMP_temperature;BMP_pressure;BME280_temperature;BME280_humidity;BME280_pressure;Samples;Min_cycle;Max_cycle;Signal;HPM_P1;HPM_P2
2023/09/23 00:01:38;;;;;;;3.20;1.30;;;;;;;13.74;100.00;99879.91;105526;1256;74847;-65
2023/09/23 00:04:07;;;;;;;2.80;1.50;;;;;;;13.74;100.00;99873.05;105582;1253;83682;-65
2023/09/23 00:06:37;;;;;;;3.80;1.50;;;;;;;13.74;100.00;99878.88;105527;1256;72292;-65
2023/09/23 00:09:07;;;;;;;2.50;1.50;;;;;;;13.75;100.00;99880.93;105596;1254;69161;-65
2023/09/23 00:11:37;;;;;;;7.50;1.90;;;;;;;13.74;100.00;99887.11;105749;1252;69262;-66
2023/09/23 00:14:05;;;;;;;3.10;1.90;;;;;;;13.74;100.00;99888.37;105588;1255;73854;-65
2023/09/23 00:16:34;;;;;;;2.00;1.70;;;;;;;13.71;100.00;99885.73;105577;1254;82587;-65
2023/09/23 00:19:03;;;;;;;3.60;2.10;;;;;;;13.70;100.00;99877.38;105571;1255;72076;-65
2023/09/23 00:21:31;;;;;;;3.50;1.80;;;;;;;13.69;100.00;99882.52;105544;1255;69179;-65
2023/09/23 00:24:01;;;;;;;4.30;1.80;;;;;;;13.69;100.00;99893.73;105554;1256;69264;-65
2023/09/23 00:26:32;;;;;;;3.00;1.60;;;;;;;13.65;100.00;99895.02;105678;1255;73881;-66
2023/09/23 00:29:00;;;;;;;2.40;1.70;;;;;;;13.59;100.00;99890.94;105558;1255;83395;-65
2023/09/23 00:31:29;;;;;;;3.10;1.50;;;;;;;13.55;100.00;99889.96;105568;1253;72524;-65
2023/09/23 00:33:58;;;;;;;7.10;1.90;;;;;;;13.54;100.00;99889.16;105572;1253;69125;-65
2023/09/23 00:36:28;;;;;;;2.90;1.50;;;;;;;13.53;100.00;99892.73;105546;1253;69072;-65
2023/09/23 00:38:57;;;;;;;3.50;1.40;;;;;;;13.54;100.00;99890.55;105640;1256;74957;-65
2023/09/23 00:41:25;;;;;;;2.50;1.00;;;;;;;13.55;100.00;99881.36;105369;1253;83009;-65
2023/09/23 00:43:54;;;;;;;2.80;1.30;;;;;;;13.57;100.00;99877.59;105512;1252;73739;-65
2023/09/23 00:46:23;;;;;;;2.80;1.60;;;;;;;13.60;100.00;99870.70;105427;1257;69299;-65
2023/09/23 00:48:53;;;;;;;3.20;1.40;;;;;;;13.63;100.00;99860.24;105405;1253;69206;-65
2023/09/23 00:51:21;;;;;;;3.30;1.50;;;;;;;13.64;100.00;99856.33;105412;1257;75015;-65
2023/09/23 00:53:50;;;;;;;2.50;1.50;;;;;;;13.62;100.00;99850.93;105381;1253;82196;-65
2023/09/23 00:56:23;;;;;;;4.10;1.10;;;;;;;13.64;100.00;99854.17;105579;1255;73976;-65
2023/09/23 00:58:51;;;;;;;1.30;1.20;;;;;;;13.65;100.00;99862.23;105518;1255;69153;-65
2023/09/23 01:01:21;;;;;;;2.30;1.40;;;;;;;13.65;100.00;99861.14;105523;1255;69532;-65
2023/09/23 01:03:49;;;;;;;2.10;1.30;;;;;;;13.66;100.00;99861.98;105574;1256;74150;-65
2023/09/23 01:06:21;;;;;;;3.10;1.60;;;;;;;13.69;100.00;99863.20;105455;1253;83864;-65
2023/09/23 01:08:50;;;;;;;2.40;1.30;;;;;;;13.71;100.00;99872.55;105556;1254;72848;-65
2023/09/23 01:11:18;;;;;;;2.50;1.30;;;;;;;13.69;100.00;99878.63;105553;1256;69183;-65
2023/09/23 01:13:51;;;;;;;3.60;1.40;;;;;;;13.71;100.00;99878.20;105560;1255;69141;-65
2023/09/23 01:16:21;;;;;;;2.00;1.50;;;;;;;13.70;100.00;99878.05;105549;1254;74842;-66
2023/09/23 01:18:53;;;;;;;3.00;1.40;;;;;;;13.71;100.00;99867.27;105522;1256;83688;-65
2023/09/23 01:21:22;;;;;;;5.10;1.70;;;;;;;13.75;100.00;99860.92;105319;1254;73697;-65
2023/09/23 01:23:50;;;;;;;2.40;1.50;;;;;;;13.76;100.00;99853.84;105564;1255;69221;-65
2023/09/23 01:26:19;;;;;;;1.90;1.30;;;;;;;13.76;100.00;99860.64;105590;1253;69099;-65
2023/09/23 01:28:49;;;;;;;3.60;1.40;;;;;;;13.77;100.00;99859.05;105586;1256;74858;-65
2023/09/23 01:31:21;;;;;;;2.30;1.50;;;;;;;13.77;100.00;99855.69;105575;1255;83277;-65
2023/09/23 01:33:50;;;;;;;2.70;1.30;;;;;;;13.76;100.00;99850.29;105557;1253;72638;-65
2023/09/23 01:36:19;;;;;;;2.10;1.10;;;;;;;13.75;100.00;99847.59;105622;1253;69675;-65
2023/09/23 01:38:48;;;;;;;2.40;1.40;;;;;;;13.74;100.00;99850.44;105558;1255;69015;-65
2023/09/23 01:41:17;;;;;;;6.40;1.50;;;;;;;13.74;100.00;99854.48;105613;1254;75009;-65
2023/09/23 01:43:48;;;;;;;;;;;;;;;13.72;100.00;99860.71;105571;1255;82468;-65
2023/09/23 01:46:19;;;;;;;3.90;1.40;;;;;;;13.69;100.00;99870.90;105393;1254;73715;-65
2023/09/23 01:48:48;;;;;;;2.80;1.70;;;;;;;13.67;100.00;99883.33;105563;1253;69172;-65
2023/09/23 01:51:17;;;;;;;3.30;1.40;;;;;;;13.65;100.00;99885.71;105660;1255;69180;-65
2023/09/23 01:53:46;;;;;;;2.00;1.40;;;;;;;13.62;100.00;99888.69;105567;1253;74695;-65
2023/09/23 01:56:14;;;;;;;2.90;1.70;;;;;;;13.63;100.00;99884.95;105551;1255;83134;-65
2023/09/23 01:58:43;;;;;;;4.50;1.60;;;;;;;13.63;100.00;99880.58;105565;1256;72990;-65
2023/09/23 02:01:13;;;;;;;3.10;1.80;;;;;;;13.61;100.00;99882.42;105400;1256;69207;-65
2023/09/23 02:03:42;;;;;;;5.60;2.20;;;;;;;13.60;100.00;99892.85;105541;1255;69142;-65
2023/09/23 02:06:11;;;;;;;3.60;1.90;;;;;;;13.58;100.00;99906.10;105584;1256;75027;-65
2023/09/23 02:08:39;;;;;;;3.90;2.30;;;;;;;13.58;100.00;99909.82;105596;1253;84193;-65
2023/09/23 02:11:08;;;;;;;5.00;2.40;;;;;;;13.56;100.00;99904.66;105572;1253;73491;-65
2023/09/23 02:13:40;;;;;;;4.50;2.00;;;;;;;13.55;100.00;99899.63;105507;1252;69462;-65
2023/09/23 02:16:09;;;;;;;3.10;2.00;;;;;;;13.56;100.00;99899.58;105497;1257;69180;-65
2023/09/23 02:18:39;;;;;;;3.40;2.30;;;;;;;13.57;100.00;99891.41;105689;1254;74895;-65
2023/09/23 02:21:08;;;;;;;3.30;2.40;;;;;;;13.58;100.00;99880.69;105594;1253;81350;-65
2023/09/23 02:23:37;;;;;;;6.90;2.50;;;;;;;13.57;100.00;99875.79;105570;1253;72499;-65
2023/09/23 02:26:06;;;;;;;6.00;2.40;;;;;;;13.57;100.00;99867.20;105444;1252;69117;-65
2023/09/23 02:28:35;;;;;;;4.00;2.80;;;;;;;13.57;100.00;99868.98;105563;1255;69157;-65
2023/09/23 02:31:03;;;;;;;5.50;2.70;;;;;;;13.56;100.00;99866.20;105395;1256;73160;-65
2023/09/23 02:33:32;;;;;;;4.90;1.90;;;;;;;13.54;100.00;99862.29;105733;1252;83438;-65
2023/09/23 02:36:01;;;;;;;3.70;1.90;;;;;;;13.53;100.00;99865.67;105664;1255;73994;-65
2023/09/23 02:38:31;;;;;;;3.90;2.20;;;;;;;13.52;100.00;99865.55;105432;1253;69186;-65
2023/09/23 02:41:05;;;;;;;6.00;2.00;;;;;;;13.53;100.00;99861.98;105546;1256;69129;-65
2023/09/23 02:43:37;;;;;;;4.70;2.20;;;;;;;13.53;100.00;99864.48;105776;1253;75110;-65
2023/09/23 02:46:06;;;;;;;3.70;2.00;;;;;;;13.54;100.00;99878.98;105552;1255;82440;-65
2023/09/23 02:48:35;;;;;;;3.50;1.90;;;;;;;13.54;100.00;99889.48;105558;1255;73027;-65
2023/09/23 02:51:04;;;;;;;4.60;1.80;;;;;;;13.55;100.00;99890.34;105487;1253;69142;-65
2023/09/23 02:53:32;;;;;;;5.10;2.00;;;;;;;13.54;100.00;99897.23;105405;1257;69168;-65
2023/09/23 02:56:06;;;;;;;3.90;1.90;;;;;;;13.53;100.00;99895.35;105508;1253;74714;-65
2023/09/23 02:58:38;;;;;;;3.10;1.90;;;;;;;13.51;100.00;99887.75;105561;1253;83074;-65
2023/09/23 03:01:09;;;;;;;4.70;1.70;;;;;;;13.49;100.00;99885.58;105546;1253;73972;-65
2023/09/23 03:03:40;;;;;;;2.90;1.80;;;;;;;13.47;100.00;99887.12;105649;1254;69168;-65
2023/09/23 03:06:10;;;;;;;5.00;1.80;;;;;;;13.42;100.00;99889.83;105573;1253;69210;-65
2023/09/23 03:08:39;;;;;;;3.50;2.20;;;;;;;13.38;100.00;99890.05;105689;1255;74894;-65
2023/09/23 03:11:09;;;;;;;4.10;2.00;;;;;;;13.35;100.00;99893.39;105591;1254;83104;-65
2023/09/23 03:13:39;;;;;;;;;;;;;;;13.33;100.00;99904.38;105516;1255;72731;-65
2023/09/23 03:16:12;;;;;;;3.20;1.80;;;;;;;13.31;100.00;99924.00;105706;1252;69069;-65
2023/09/23 03:19:10;;;;;;;4.10;2.00;;;;;;;13.26;100.00;99933.91;105605;1255;69249;-65
2023/09/23 03:21:45;;;;;;;4.30;2.20;;;;;;;13.19;100.00;99935.49;105413;1253;75039;-65
2023/09/23 03:24:15;;;;;;;3.20;1.90;;;;;;;13.14;100.00;99939.26;105468;1254;82834;-65
2023/09/23 03:26:46;;;;;;;3.20;2.20;;;;;;;13.12;100.00;99940.64;105421;1253;73762;-65
2023/09/23 03:29:18;;;;;;;3.60;2.00;;;;;;;13.10;100.00;99950.39;105509;1255;69276;-65
2023/09/23 03:31:48;;;;;;;2.30;1.80;;;;;;;13.08;100.00;99960.64;105578;1255;69106;-65
2023/09/23 03:34:17;;;;;;;4.70;1.80;;;;;;;13.08;100.00;99966.46;105547;1254;73981;-65
2023/09/23 03:36:46;;;;;;;4.70;1.90;;;;;;;13.04;100.00;99964.89;105477;1253;83360;-65
2023/09/23 03:39:17;;;;;;;3.00;2.00;;;;;;;13.02;100.00;99967.10;105442;1253;73706;-65
2023/09/23 03:41:46;;;;;;;3.70;1.80;;;;;;;13.02;100.00;99966.77;105420;1253;69156;-65
2023/09/23 03:44:15;;;;;;;3.00;1.80;;;;;;;13.02;100.00;99969.04;105574;1256;69167;-65
2023/09/23 03:46:47;;;;;;;3.70;2.30;;;;;;;13.03;100.00;99972.32;105765;1253;74805;-65
2023/09/23 03:49:18;;;;;;;4.40;2.40;;;;;;;13.05;100.00;99972.77;105538;1253;82189;-65
2023/09/23 03:51:47;;;;;;;3.80;2.30;;;;;;;13.06;100.00;99961.83;105548;1252;73664;-65
2023/09/23 03:54:16;;;;;;;3.30;2.30;;;;;;;13.08;100.00;99953.48;105520;1256;69165;-65
2023/09/23 03:56:44;;;;;;;6.10;2.60;;;;;;;13.13;100.00;99955.48;105569;1255;69123;-65
2023/09/23 03:59:13;;;;;;;6.00;2.40;;;;;;;13.15;100.00;99958.13;105483;1253;73837;-65
2023/09/23 04:01:41;;;;;;;5.20;2.80;;;;;;;13.17;100.00;99968.77;105431;1257;83586;-65
2023/09/23 04:04:10;;;;;;;5.40;2.50;;;;;;;13.17;100.00;99975.43;105519;1253;73638;-65
2023/09/23 04:06:38;;;;;;;8.00;3.50;;;;;;;13.16;100.00;99982.83;105419;1253;69123;-65
2023/09/23 04:09:09;;;;;;;4.60;2.20;;;;;;;13.15;100.00;99985.52;105465;1252;69096;-65
2023/09/23 04:11:38;;;;;;;4.60;2.70;;;;;;;13.12;100.00;99990.62;105535;1254;74785;-65
2023/09/23 04:14:06;;;;;;;4.40;2.70;;;;;;;13.11;100.00;99986.98;105524;1253;83374;-65
2023/09/23 04:16:35;;;;;;;6.10;3.00;;;;;;;13.12;100.00;99990.64;105487;1253;72625;-65
2023/09/23 04:19:03;;;;;;;4.20;3.00;;;;;;;13.09;100.00;99996.55;105521;1253;69885;-65
2023/09/23 04:21:31;;;;;;;6.90;2.80;;;;;;;13.03;100.00;100001.79;105713;1255;69074;-65
2023/09/23 04:24:01;;;;;;;5.70;3.20;;;;;;;12.97;100.00;100003.68;105565;1252;74599;-65
2023/09/23 04:26:29;;;;;;;3.60;2.20;;;;;;;12.94;100.00;100007.89;105516;1253;82548;-65
2023/09/23 04:28:58;;;;;;;3.20;2.70;;;;;;;12.88;100.00;100011.73;105469;1255;73295;-65
2023/09/23 04:31:26;;;;;;;5.10;2.10;;;;;;;12.82;100.00;100010.81;105496;1255;69246;-65
2023/09/23 04:33:54;;;;;;;2.30;2.00;;;;;;;12.78;100.00;100017.30;105704;1255;69185;-65
2023/09/23 04:36:23;;;;;;;6.50;2.80;;;;;;;12.73;100.00;100011.77;105545;1255;73830;-65
2023/09/23 04:38:51;;;;;;;6.70;2.10;;;;;;;12.70;100.00;100008.64;105520;1255;83545;-65
2023/09/23 04:41:19;;;;;;;3.70;2.10;;;;;;;12.66;100.00;100013.16;105538;1255;73424;-65
2023/09/23 04:43:47;;;;;;;2.70;2.00;;;;;;;12.65;100.00;100020.98;105620;1253;69171;-65
2023/09/23 04:46:16;;;;;;;4.30;2.10;;;;;;;12.65;100.00;100028.71;105489;1256;69177;-65
2023/09/23 04:48:45;;;;;;;3.20;2.50;;;;;;;12.63;100.00;100030.20;105559;1255;75145;-65
2023/09/23 04:51:14;;;;;;;5.20;2.10;;;;;;;12.59;100.00;100027.77;105557;1256;83492;-65
2023/09/23 04:53:42;;;;;;;3.00;2.00;;;;;;;12.53;100.00;100023.33;105516;1256;74090;-65
2023/09/23 04:56:12;;;;;;;5.00;2.20;;;;;;;12.48;100.00;100023.06;105483;1253;69087;-65
2023/09/23 04:58:41;;;;;;;3.90;1.50;;;;;;;12.43;100.00;100023.33;105534;1254;69186;-65
2023/09/23 05:01:14;;;;;;;3.60;1.90;;;;;;;12.36;100.00;100020.02;105574;1255;75180;-65
2023/09/23 05:03:43;;;;;;;5.30;1.70;;;;;;;12.31;100.00;100028.31;105523;1253;82430;-65
2023/09/23 05:06:11;;;;;;;2.80;1.80;;;;;;;12.28;100.00;100033.55;105527;1253;73703;-65
2023/09/23 05:08:40;;;;;;;3.30;1.50;;;;;;;12.25;100.00;100039.98;105522;1253;69190;-65
2023/09/23 05:11:10;;;;;;;9.40;2.10;;;;;;;12.22;100.00;100052.22;105536;1252;69179;-65
2023/09/23 05:13:38;;;;;;;4.40;2.40;;;;;;;12.23;100.00;100054.43;105503;1253;74880;-65
2023/09/23 05:16:06;;;;;;;5.40;2.10;;;;;;;12.22;100.00;100059.73;105495;1255;83720;-65
2023/09/23 05:18:35;;;;;;;2.30;1.90;;;;;;;12.20;100.00;100062.30;105660;1253;73386;-65
2023/09/23 05:21:05;;;;;;;4.50;2.50;;;;;;;12.21;100.00;100067.17;105605;1253;69053;-65
2023/09/23 05:23:33;;;;;;;5.90;3.00;;;;;;;12.24;100.00;100065.29;105553;1253;69060;-65
2023/09/23 05:26:04;;;;;;;7.30;3.00;;;;;;;12.26;100.00;100072.67;105700;1254;74995;-65
2023/09/23 05:28:33;;;;;;;5.50;3.00;;;;;;;12.28;100.00;100076.11;105515;1253;82423;-65
2023/09/23 05:31:03;;;;;;;4.70;3.40;;;;;;;12.32;100.00;100077.47;105618;1253;73621;-65
2023/09/23 05:33:32;;;;;;;6.20;3.30;;;;;;;12.35;100.00;100080.67;105524;1253;69184;-65
2023/09/23 05:36:00;;;;;;;4.50;2.40;;;;;;;12.35;100.00;100082.76;105512;1255;69148;-65
2023/09/23 05:38:29;;;;;;;4.20;2.60;;;;;;;12.35;100.00;100084.50;105747;1255;75171;-65
2023/09/23 05:40:57;;;;;;;3.40;2.10;;;;;;;12.35;100.00;100084.67;105555;1253;82866;-65
2023/09/23 05:43:25;;;;;;;3.70;2.20;;;;;;;12.34;100.00;100079.69;105473;1253;72630;-65
2023/09/23 05:45:54;;;;;;;3.50;2.40;;;;;;;12.33;100.00;100075.67;105470;1255;69874;-65
2023/09/23 05:48:22;;;;;;;5.70;3.20;;;;;;;12.34;100.00;100072.66;105397;1253;69276;-65
2023/09/23 05:50:51;;;;;;;5.10;3.90;;;;;;;12.37;100.00;100071.29;105619;1253;74781;-65
2023/09/23 05:53:19;;;;;;;5.90;3.80;;;;;;;12.42;100.00;100068.95;105523;1253;83251;-65
2023/09/23 05:55:48;;;;;;;6.30;4.10;;;;;;;12.46;100.00;100070.67;105496;1253;72706;-65
2023/09/23 05:58:17;;;;;;;6.10;3.90;;;;;;;12.50;100.00;100079.05;105535;1252;69074;-65
2023/09/23 06:00:46;;;;;;;5.10;3.80;;;;;;;12.56;100.00;100084.00;105496;1253;69253;-65
2023/09/23 06:03:16;;;;;;;10.10;5.10;;;;;;;12.62;100.00;100088.23;105483;1253;74752;-65
2023/09/23 06:05:45;;;;;;;6.80;4.00;;;;;;;12.69;100.00;100094.92;105560;1256;82971;-65
2023/09/23 06:08:13;;;;;;;7.50;4.50;;;;;;;12.76;100.00;100101.77;105603;1253;73465;-65
2023/09/23 06:10:42;;;;;;;10.50;5.50;;;;;;;12.83;100.00;100107.38;105612;1253;69205;-65
2023/09/23 06:13:10;;;;;;;12.10;6.20;;;;;;;12.90;100.00;100110.15;105726;1255;69157;-65
2023/09/23 06:15:38;;;;;;;12.50;6.10;;;;;;;12.97;100.00;100114.70;105442;1255;73987;-65
2023/09/23 06:18:07;;;;;;;8.30;4.10;;;;;;;13.03;100.00;100116.69;105529;1253;83720;-65
2023/09/23 06:20:36;;;;;;;6.80;4.50;;;;;;;13.10;100.00;100120.17;105667;1255;72718;-65
2023/09/23 06:23:04;;;;;;;4.70;2.70;;;;;;;13.17;100.00;100130.33;105247;1252;284552;-65
2023/09/23 06:25:33;;;;;;;4.10;2.80;;;;;;;13.24;100.00;100125.23;105548;1254;69205;-65
2023/09/23 06:28:01;;;;;;;4.10;2.60;;;;;;;13.30;100.00;100130.91;105631;1252;74898;-65
2023/09/23 06:30:30;;;;;;;5.10;3.00;;;;;;;13.35;100.00;100138.03;105492;1253;82397;-65
2023/09/23 06:32:58;;;;;;;4.50;2.40;;;;;;;13.37;100.00;100142.28;105681;1253;73655;-65
2023/09/23 06:35:26;;;;;;;4.70;2.40;;;;;;;13.43;100.00;100145.88;105510;1255;69278;-65
2023/09/23 06:37:56;;;;;;;3.80;3.20;;;;;;;13.47;100.00;100141.77;105480;1253;69075;-65
2023/09/23 06:40:27;;;;;;;3.70;2.80;;;;;;;13.52;100.00;100146.77;105486;1255;73856;-65
2023/09/23 06:42:55;;;;;;;6.50;3.00;;;;;;;13.57;100.00;100155.66;105490;1255;83175;-65
2023/09/23 06:45:24;;;;;;;3.60;2.50;;;;;;;13.61;100.00;100164.75;105650;1253;74155;-65
2023/09/23 06:47:52;;;;;;;4.50;2.80;;;;;;;13.67;100.00;100168.11;105539;1255;69177;-65
2023/09/23 06:50:21;;;;;;;5.10;2.60;;;;;;;13.74;100.00;100172.65;105536;1254;69036;-65
2023/09/23 06:52:49;;;;;;;5.10;2.50;;;;;;;13.81;100.00;100182.98;105582;1255;73891;-64
2023/09/23 06:55:18;;;;;;;3.40;2.30;;;;;;;13.88;100.00;100194.89;105485;1255;83139;-65
2023/09/23 06:57:46;;;;;;;4.30;2.70;;;;;;;13.96;100.00;100200.63;105544;1253;73708;-64
2023/09/23 07:00:16;;;;;;;3.50;1.90;;;;;;;14.05;100.00;100212.59;105510;1253;69145;-64
2023/09/23 07:02:44;;;;;;;3.60;2.10;;;;;;;14.15;100.00;100227.31;105543;1253;69049;-64
2023/09/23 07:05:13;;;;;;;3.20;1.90;;;;;;;14.25;100.00;100240.68;105556;1253;74725;-64
2023/09/23 07:07:41;;;;;;;4.00;2.10;;;;;;;14.34;100.00;100248.63;105465;1253;83315;-65
2023/09/23 07:10:10;;;;;;;3.30;1.50;;;;;;;14.43;100.00;100249.02;105450;1255;73689;-64
2023/09/23 07:12:38;;;;;;;3.80;1.50;;;;;;;14.49;100.00;100246.71;105443;1253;69193;-64
2023/09/23 07:15:07;;;;;;;2.10;1.40;;;;;;;14.54;100.00;100230.33;105518;1253;69107;-64
2023/09/23 07:17:36;;;;;;;3.40;1.60;;;;;;;14.58;100.00;100215.16;105518;1255;75120;-64
2023/09/23 07:20:06;;;;;;;3.90;1.40;;;;;;;14.60;100.00;100206.05;105531;1254;82522;-63
2023/09/23 07:22:34;;;;;;;2.70;1.30;;;;;;;14.63;100.00;100200.77;105541;1254;72574;-64
2023/09/23 07:25:04;;;;;;;2.20;1.20;;;;;;;14.70;100.00;100215.88;105516;1255;69215;-64
2023/09/23 07:27:33;;;;;;;3.10;1.50;;;;;;;14.78;100.00;100230.74;105461;1253;69181;-64
2023/09/23 07:30:01;;;;;;;4.10;1.70;;;;;;;14.84;100.00;100233.20;105627;1255;74750;-64
2023/09/23 07:32:30;;;;;;;3.60;1.50;;;;;;;14.90;100.00;100239.85;105540;1255;83987;-63
2023/09/23 07:34:59;;;;;;;2.50;1.20;;;;;;;14.97;100.00;100249.85;105555;1255;71856;-64
2023/09/23 07:37:27;;;;;;;6.90;1.80;;;;;;;15.06;100.00;100254.64;105497;1253;69193;-64
2023/09/23 07:39:56;;;;;;;2.10;1.30;;;;;;;15.14;100.00;100259.60;105457;1253;69162;-64
2023/09/23 07:42:24;;;;;;;2.80;1.20;;;;;;;15.21;100.00;100259.90;105568;1256;74859;-64
2023/09/23 07:44:52;;;;;;;2.40;1.40;;;;;;;15.29;100.00;100260.67;105457;1255;83618;-64
2023/09/23 07:47:20;;;;;;;3.60;1.30;;;;;;;15.39;100.00;100261.49;105444;1255;73841;-64
2023/09/23 07:49:49;;;;;;;1.90;1.30;;;;;;;15.45;100.00;100258.66;105533;1252;69061;-64
2023/09/23 07:52:18;;;;;;;1.80;1.40;;;;;;;15.51;99.91;100252.98;105583;1256;69108;-64
2023/09/23 07:54:46;;;;;;;2.30;1.50;;;;;;;15.60;99.74;100257.05;105457;1254;74868;-64
2023/09/23 07:57:14;;;;;;;3.20;1.20;;;;;;;15.70;99.43;100267.95;105507;1253;83379;-64
2023/09/23 07:59:43;;;;;;;2.30;1.30;;;;;;;15.76;98.97;100273.90;105510;1255;73689;-64
2023/09/23 08:02:11;;;;;;;1.80;1.10;;;;;;;15.84;98.74;100275.89;105441;1255;69609;-64
2023/09/23 08:04:40;;;;;;;3.90;1.20;;;;;;;15.89;98.09;100281.56;105667;1255;69125;-64
2023/09/23 08:07:08;;;;;;;2.40;1.10;;;;;;;15.94;97.65;100292.18;105512;1255;74876;-64
2023/09/23 08:09:37;;;;;;;1.70;1.10;;;;;;;16.02;97.41;100295.20;105477;1256;83727;-64
2023/09/23 08:12:06;;;;;;;1.60;1.10;;;;;;;16.13;97.13;100289.10;105533;1253;72608;-64
2023/09/23 08:14:34;;;;;;;2.40;1.20;;;;;;;16.23;96.72;100292.18;105621;1253;69193;-65
2023/09/23 08:17:02;;;;;;;1.60;1.10;;;;;;;16.39;96.92;100300.55;105440;1255;69171;-64
2023/09/23 08:19:30;;;;;;;1.80;1.00;;;;;;;16.53;96.57;100297.16;105481;1256;73736;-64
2023/09/23 08:21:59;;;;;;;1.70;1.10;;;;;;;16.70;96.37;100300.19;105494;1255;83414;-66
2023/09/23 08:24:27;;;;;;;2.10;1.20;;;;;;;16.83;95.67;100305.52;105525;1252;73575;-65
2023/09/23 08:26:56;;;;;;;1.80;1.00;;;;;;;16.96;95.23;100302.92;105425;1252;69016;-65
2023/09/23 08:29:25;;;;;;;3.70;1.30;;;;;;;17.10;95.03;100301.99;105496;1253;69135;-65
2023/09/23 08:31:53;;;;;;;4.20;1.10;;;;;;;17.23;94.48;100302.60;105524;1255;74944;-65
2023/09/23 08:34:24;;;;;;;3.30;1.10;;;;;;;17.26;93.61;100309.79;105471;1253;83668;-65
2023/09/23 08:36:53;;;;;;;1.30;0.80;;;;;;;17.24;92.71;100313.25;105484;1253;73648;-65
2023/09/23 08:39:21;;;;;;;2.30;1.10;;;;;;;17.20;91.90;100306.45;105467;1253;69171;-65
2023/09/23 08:41:53;;;;;;;2.40;1.10;;;;;;;17.07;90.99;100309.61;105441;1256;69179;-65
2023/09/23 08:44:22;;;;;;;2.40;1.20;;;;;;;17.00;90.89;100317.69;105465;1255;74194;-65
2023/09/23 08:46:52;;;;;;;1.20;1.00;;;;;;;16.99;90.49;100325.66;105500;1253;83578;-65
2023/09/23 08:49:21;;;;;;;2.40;1.20;;;;;;;16.97;90.16;100324.23;105516;1255;73610;-65
2023/09/23 08:51:54;;;;;;;1.50;0.90;;;;;;;17.00;90.15;100325.23;105496;1253;69015;-65
2023/09/23 08:54:27;;;;;;;1.30;1.10;;;;;;;17.13;90.45;100325.62;105474;1255;69194;-65
2023/09/23 08:56:55;;;;;;;1.20;1.00;;;;;;;17.30;90.36;100326.46;105458;1253;73818;-66
2023/09/23 08:59:26;;;;;;;2.40;1.30;;;;;;;17.40;89.62;100329.00;105411;1253;82587;-65
2023/09/23 09:01:55;;;;;;;2.10;1.40;;;;;;;17.40;88.76;100327.37;105406;1253;73669;-65
2023/09/23 09:04:24;;;;;;;2.60;1.10;;;;;;;17.46;88.54;100326.83;105407;1253;69152;-65
2023/09/23 09:06:54;;;;;;;2.30;1.00;;;;;;;17.54;88.26;100329.42;105554;1253;69171;-66
2023/09/23 09:09:23;;;;;;;2.60;1.30;;;;;;;17.68;88.23;100333.64;105475;1256;74568;-66
2023/09/23 09:11:53;;;;;;;2.10;1.20;;;;;;;17.76;87.37;100339.13;105495;1255;82748;-65
2023/09/23 09:14:22;;;;;;;1.30;1.10;;;;;;;17.80;87.20;100341.30;105474;1253;73685;-66
2023/09/23 09:16:51;;;;;;;1.40;1.10;;;;;;;17.80;86.19;100338.16;105542;1254;69186;-66
2023/09/23 09:19:20;;;;;;;1.20;1.00;;;;;;;17.77;85.77;100341.48;105496;1255;69110;-66
2023/09/23 09:21:50;;;;;;;1.60;1.20;;;;;;;17.79;85.64;100348.42;105513;1256;75226;-65
2023/09/23 09:24:19;;;;;;;2.40;1.10;;;;;;;17.87;85.64;100345.09;105510;1253;82504;-66
2023/09/23 09:26:48;;;;;;;1.60;1.10;;;;;;;17.92;85.29;100344.95;105552;1255;73817;-66
2023/09/23 09:29:17;;;;;;;3.10;1.40;;;;;;;17.92;84.84;100342.84;105546;1255;69166;-65
2023/09/23 09:31:49;;;;;;;2.30;1.10;;;;;;;17.91;84.69;100342.69;105548;1255;69066;-66
2023/09/23 09:34:23;;;;;;;3.40;1.20;;;;;;;17.91;84.27;100340.98;105497;1253;73740;-65
2023/09/23 09:36:56;;;;;;;2.40;1.30;;;;;;;17.90;83.84;100336.05;105486;1253;83386;-65
2023/09/23 09:39:29;;;;;;;7.00;1.10;;;;;;;17.98;83.73;100329.48;105486;1253;72844;-65
2023/09/23 09:41:58;;;;;;;1.50;1.10;;;;;;;18.08;83.55;100337.63;105482;1253;69180;-65
2023/09/23 09:44:28;;;;;;;0.80;0.70;;;;;;;18.19;83.26;100334.02;105537;1253;69171;-66
2023/09/23 09:46:59;;;;;;;2.80;1.00;;;;;;;18.28;82.58;100333.45;105526;1256;75037;-65
2023/09/23 09:49:28;;;;;;;4.10;0.90;;;;;;;18.32;82.04;100338.67;105415;1256;83393;-65
2023/09/23 09:51:57;;;;;;;3.50;1.20;;;;;;;18.25;81.36;100334.68;105493;1253;73834;-66
2023/09/23 09:54:26;;;;;;;1.30;0.80;;;;;;;18.26;81.37;100337.11;105518;1253;69168;-65
2023/09/23 09:56:56;;;;;;;1.10;0.60;;;;;;;18.33;81.29;100338.74;105562;1253;69164;-65
2023/09/23 09:59:30;;;;;;;0.70;0.70;;;;;;;18.41;80.82;100338.88;105520;1256;73938;-65
2023/09/23 10:01:59;;;;;;;0.90;0.60;;;;;;;18.56;80.81;100341.20;105548;1255;83324;-65
2023/09/23 10:04:32;;;;;;;3.00;0.80;;;;;;;18.66;80.11;100340.78;105418;1259;73493;-65
2023/09/23 10:07:05;;;;;;;1.30;0.70;;;;;;;18.81;79.90;100351.28;105481;1255;69242;-66
2023/09/23 10:09:38;;;;;;;1.40;0.70;;;;;;;18.87;79.18;100354.90;105505;1255;69420;-66
2023/09/23 10:12:07;;;;;;;1.30;0.80;;;;;;;18.81;78.43;100349.30;105479;1255;74240;-66
2023/09/23 10:14:37;;;;;;;1.90;0.70;;;;;;;18.82;77.89;100349.65;105534;1255;81596;-65
2023/09/23 10:17:07;;;;;;;0.90;0.60;;;;;;;18.93;77.70;100349.89;105473;1253;73879;-66
2023/09/23 10:19:41;;;;;;;1.70;0.70;;;;;;;19.09;77.53;100353.99;105588;1253;69471;-66
2023/09/23 10:22:18;;;;;;;1.10;0.50;;;;;;;19.23;76.51;100355.46;105497;1253;69231;-66
2023/09/23 10:25:11;;;;;;;0.80;0.70;;;;;;;19.36;75.69;100355.52;105557;1253;74555;-66
2023/09/23 10:27:56;;;;;;;1.40;0.60;;;;;;;19.31;74.22;100356.33;105484;1255;83340;-66
2023/09/23 10:30:26;;;;;;;1.50;0.70;;;;;;;19.35;74.32;100351.01;105471;1253;73867;-66
2023/09/23 10:32:54;;;;;;;1.10;0.60;;;;;;;19.46;74.22;100354.70;105455;1253;69186;-67
2023/09/23 10:35:23;;;;;;;0.90;0.70;;;;;;;19.52;73.91;100353.83;105518;1255;69791;-65
2023/09/23 10:37:52;;;;;;;3.20;0.60;;;;;;;19.49;73.39;100356.20;105719;1253;73766;-66
2023/09/23 10:40:20;;;;;;;1.60;0.60;;;;;;;19.42;72.96;100357.45;105536;1256;83209;-66
2023/09/23 10:42:49;;;;;;;1.60;0.60;;;;;;;19.25;72.39;100363.48;105521;1256;73436;-65
2023/09/23 10:45:19;;;;;;;1.10;0.60;;;;;;;19.11;72.36;100362.41;105529;1253;69064;-66
2023/09/23 10:47:48;;;;;;;2.70;0.80;;;;;;;19.01;72.30;100356.40;105508;1255;69202;-66
2023/09/23 10:50:16;;;;;;;0.80;0.70;;;;;;;19.04;72.39;100353.36;105490;1253;74859;-66
2023/09/23 10:52:45;;;;;;;1.90;0.70;;;;;;;19.23;72.67;100358.67;105520;1255;82299;-66
2023/09/23 10:55:13;;;;;;;1.30;0.70;;;;;;;19.34;72.43;100369.38;105588;1253;73480;-67
2023/09/23 10:57:42;;;;;;;2.20;0.70;;;;;;;19.37;72.32;100374.77;105518;1253;69580;-66
2023/09/23 11:00:20;;;;;;;1.30;0.90;;;;;;;19.35;71.92;100380.12;105539;1254;69185;-66
2023/09/23 11:02:52;;;;;;;1.60;0.70;;;;;;;19.21;71.70;100370.84;105704;1255;74654;-66
2023/09/23 11:05:22;;;;;;;2.60;0.80;;;;;;;19.16;71.75;100372.07;105504;1256;83301;-66
2023/09/23 11:07:54;;;;;;;1.40;0.80;;;;;;;19.33;72.00;100373.34;105501;1254;73684;-67
2023/09/23 11:10:23;;;;;;;1.10;0.80;;;;;;;19.38;71.45;100377.02;105413;1254;69153;-67
2023/09/23 11:12:55;;;;;;;1.60;1.10;;;;;;;19.37;71.21;100378.17;105679;1255;69109;-67
2023/09/23 11:15:23;;;;;;;1.20;0.80;;;;;;;19.56;71.44;100380.51;105509;1254;74802;-67
2023/09/23 11:17:55;;;;;;;1.20;0.70;;;;;;;19.67;71.15;100379.51;105463;1255;83078;-67
2023/09/23 11:20:32;;;;;;;2.50;0.90;;;;;;;19.65;70.58;100375.59;105532;1253;73729;-67
2023/09/23 11:23:03;;;;;;;1.70;0.80;;;;;;;19.76;70.63;100375.26;105466;1255;69176;-66
2023/09/23 11:25:45;;;;;;;1.60;0.60;;;;;;;19.87;70.23;100373.96;105529;1255;69205;-67